Time;durP1;ratioP1;P1;durP2;ratioP2;P2;SDS_P1;SDS_P2;PMS_P1;PMS_P2;Temp;Humidity;BMP_temperature;BMP_pressure;BME280_temperature;BME280_humidity;BME280_pressure;Samples;Min_cycle;Max_cycle;Signal;HPM_P1;HPM_P2
2023/08/12 00:01:05;;;;;;;;;;;22.90;99.90;;;;;;4980654;28;20486;-94
2023/08/12 00:03:31;;;;;;;;;;;22.90;99.90;;;;;;4980979;28;19918;-93
2023/08/12 00:06:00;;;;;;;;;;;22.90;99.90;;;;;;4981116;28;19953;-93
2023/08/12 00:08:26;;;;;;;;;;;22.90;99.90;;;;;;4983923;28;19918;-93
2023/08/12 00:10:51;;;;;;;;;;;22.90;99.90;;;;;;4980221;28;19930;-94
2023/08/12 00:13:17;;;;;;;;;;;22.90;99.90;;;;;;4980825;28;19914;-93
2023/08/12 00:15:43;;;;;;;;;;;22.80;99.90;;;;;;4979990;28;19996;-93
2023/08/12 00:18:09;;;;;;;;;;;22.90;99.90;;;;;;4993256;28;19914;-94
2023/08/12 00:20:34;;;;;;;;;;;22.80;99.90;;;;;;4980161;28;19921;-93
2023/08/12 00:23:00;;;;;;;;;;;22.80;99.90;;;;;;4980033;28;19913;-93
2023/08/12 00:25:26;;;;;;;;;;;22.80;99.90;;;;;;4980090;28;19940;-94
2023/08/12 00:27:52;;;;;;;;;;;22.80;99.90;;;;;;4979682;28;19921;-94
2023/08/12 00:30:17;;;;;;;;;;;22.80;99.90;;;;;;4979925;28;19972;-94
2023/08/12 00:32:43;;;;;;;;;;;22.80;99.90;;;;;;4979872;28;20271;-93
2023/08/12 00:35:08;;;;;;;;;;;22.80;99.90;;;;;;4980171;28;19921;-93
2023/08/12 00:37:34;;;;;;;;;;;22.80;99.90;;;;;;4980011;28;20359;-93
2023/08/12 00:40:00;;;;;;;;;;;22.80;99.90;;;;;;4980015;28;19910;-92
2023/08/12 00:42:25;;;;;;;;;;;22.80;99.90;;;;;;4984579;28;19914;-93
2023/08/12 00:44:51;;;;;;;;;;;22.80;99.90;;;;;;4979675;28;19909;-94
2023/08/12 00:47:16;;;;;;;;;;;22.70;99.90;;;;;;4979991;28;19910;-93
2023/08/12 00:49:45;;;;;;;;;;;22.80;99.90;;;;;;4979313;28;19918;-93
2023/08/12 00:52:11;;;;;;;;;;;22.70;99.90;;;;;;4979309;28;19913;-92
2023/08/12 00:54:39;;;;;;;;;;;22.70;99.90;;;;;;4979147;28;22106;-94
2023/08/12 00:57:05;;;;;;;;;;;22.70;99.90;;;;;;4978417;28;20322;-93
2023/08/12 00:59:32;;;;;;;;;;;22.70;99.90;;;;;;4985932;28;19910;-94
2023/08/12 01:01:58;;;;;;;;;;;22.70;99.90;;;;;;4984728;28;19917;-94
2023/08/12 01:04:23;;;;;;;;;;;22.70;99.90;;;;;;4984475;28;19914;-94
2023/08/12 01:06:49;;;;;;;;;;;22.70;99.90;;;;;;4983352;28;19913;-93
2023/08/12 01:09:14;;;;;;;;;;;22.60;99.90;;;;;;4979782;28;19973;-94
2023/08/12 01:11:40;;;;;;;;;;;22.60;99.90;;;;;;4980635;28;20351;-93
2023/08/12 01:14:23;;;;;;;;;;;22.60;99.90;;;;;;4980708;28;19914;-94
2023/08/12 01:16:50;;;;;;;;;;;22.50;99.90;;;;;;4980122;28;19910;-92
2023/08/12 01:19:35;;;;;;;;;;;22.50;99.90;;;;;;4979571;28;20017;-93
2023/08/12 01:22:01;;;;;;;;;;;22.60;99.90;;;;;;4979426;28;19949;-94
2023/08/12 01:24:27;;;;;;;;;;;22.60;99.90;;;;;;4978881;28;20012;-94
2023/08/12 01:26:53;;;;;;;;;;;22.50;99.90;;;;;;4979146;28;19999;-93
2023/08/12 01:29:18;;;;;;;;;;;22.50;99.90;;;;;;4979368;28;19928;-93
2023/08/12 01:31:48;;;;;;;;;;;22.50;99.90;;;;;;4979455;28;19917;-94
2023/08/12 01:34:21;;;;;;;;;;;22.50;99.90;;;;;;4978684;28;19957;-95
2023/08/12 01:36:49;;;;;;;;;;;22.50;99.90;;;;;;4978862;28;19914;-93
2023/08/12 01:39:18;;;;;;;;;;;22.50;99.90;;;;;;4979047;28;19936;-92
2023/08/12 01:41:44;;;;;;;;;;;22.50;99.90;;;;;;4979007;28;19917;-94
2023/08/12 01:44:09;;;;;;;;;;;22.50;99.90;;;;;;4978903;28;19914;-93
2023/08/12 01:46:35;;;;;;;;;;;22.40;99.90;;;;;;4981751;28;19975;-92
2023/08/12 01:49:01;;;;;;;;;;;22.40;99.90;;;;;;4987172;28;19921;-94
2023/08/12 01:51:27;;;;;;;;;;;22.40;99.90;;;;;;4978489;28;19918;-94
2023/08/12 01:53:52;;;;;;;;;;;22.50;99.90;;;;;;4979123;28;19916;-93
2023/08/12 01:56:18;;;;;;;;;;;22.40;99.90;;;;;;4978540;28;20012;-94
2023/08/12 01:58:43;;;;;;;;;;;22.40;99.90;;;;;;4978665;28;19937;-93
2023/08/12 02:01:09;;;;;;;;;;;22.50;99.90;;;;;;4978778;28;19909;-94
2023/08/12 02:03:35;;;;;;;;;;;22.40;99.90;;;;;;4979631;28;19910;-93
2023/08/12 02:06:00;;;;;;;;;;;22.50;99.90;;;;;;4978655;28;19921;-94
2023/08/12 02:08:26;;;;;;;;;;;22.50;99.90;;;;;;4981369;28;19914;-93
2023/08/12 02:10:51;;;;;;;;;;;22.50;99.90;;;;;;4983816;28;19914;-94
2023/08/12 02:13:17;;;;;;;;;;;22.40;99.90;;;;;;4983251;28;19953;-94
2023/08/12 02:15:43;;;;;;;;;;;22.50;99.90;;;;;;4982802;28;20363;-95
2023/08/12 02:18:08;;;;;;;;;;;22.40;99.90;;;;;;4983050;28;19964;-94
2023/08/12 02:20:34;;;;;;;;;;;22.50;99.90;;;;;;4983045;28;19913;-93
2023/08/12 02:22:59;;;;;;;;;;;22.50;99.90;;;;;;4982639;28;19914;-94
2023/08/12 02:25:25;;;;;;;;;;;22.50;99.90;;;;;;4982822;28;20004;-94
2023/08/12 02:27:51;;;;;;;;;;;22.50;99.90;;;;;;4982132;28;19968;-94
2023/08/12 02:30:16;;;;;;;;;;;22.50;99.90;;;;;;4982059;28;19921;-94
2023/08/12 02:32:43;;;;;;;;;;;22.50;99.90;;;;;;4982391;28;19914;-93
2023/08/12 02:35:09;;;;;;;;;;;22.50;99.90;;;;;;4982293;28;19914;-94
2023/08/12 02:37:37;;;;;;;;;;;22.50;99.90;;;;;;4982028;28;19910;-95
2023/08/12 02:40:04;;;;;;;;;;;22.50;99.90;;;;;;4982062;28;19910;-95
2023/08/12 02:42:30;;;;;;;;;;;22.50;99.90;;;;;;4982409;28;19910;-94
2023/08/12 02:44:56;;;;;;;;;;;22.50;99.90;;;;;;4981413;28;19914;-94
2023/08/12 02:50:25;;;;;;;;;;;22.40;99.90;;;;;;4999192;28;19986;-95
2023/08/12 02:52:50;;;;;;;;;;;22.40;99.90;;;;;;4981884;28;20358;-94
2023/08/12 02:55:16;;;;;;;;;;;22.40;99.90;;;;;;4982167;28;19925;-94
2023/08/12 02:57:41;;;;;;;;;;;22.40;99.90;;;;;;4981527;28;19914;-93
2023/08/12 03:00:07;;;;;;;;;;;22.40;99.90;;;;;;4981643;28;19960;-93
2023/08/12 03:02:33;;;;;;;;;;;22.40;99.90;;;;;;4984772;28;19985;-96
2023/08/12 03:04:59;;;;;;;;;;;22.40;99.90;;;;;;4985661;28;19957;-95
2023/08/12 03:07:28;;;;;;;;;;;22.40;99.90;;;;;;4985726;28;19914;-93
2023/08/12 03:09:54;;;;;;;;;;;22.40;99.90;;;;;;4982430;28;19957;-94
2023/08/12 03:12:19;;;;;;;;;;;22.40;99.90;;;;;;4982715;28;19909;-93
2023/08/12 03:14:47;;;;;;;;;;;22.30;99.90;;;;;;4982716;28;19910;-94
2023/08/12 03:17:13;;;;;;;;;;;22.30;99.90;;;;;;4981803;28;20343;-95
2023/08/12 03:19:38;;;;;;;;;;;22.30;99.90;;;;;;4980307;28;19921;-95
2023/08/12 03:22:04;;;;;;;;;;;22.30;99.90;;;;;;4981149;28;19910;-93
2023/08/12 03:24:29;;;;;;;;;;;22.30;99.90;;;;;;4981053;28;20013;-93
2023/08/12 03:26:55;;;;;;;;;;;22.30;99.90;;;;;;4981050;28;19923;-93
2023/08/12 03:29:20;;;;;;;;;;;22.30;99.90;;;;;;4980985;28;19918;-94
2023/08/12 03:31:46;;;;;;;;;;;22.30;99.90;;;;;;4981452;28;20000;-94
2023/08/12 03:34:11;;;;;;;;;;;22.30;99.90;;;;;;4981852;28;19921;-93
2023/08/12 03:36:37;;;;;;;;;;;22.20;99.90;;;;;;4982437;28;20355;-93
2023/08/12 03:39:03;;;;;;;;;;;22.20;99.90;;;;;;4981277;28;19910;-93
2023/08/12 03:41:29;;;;;;;;;;;22.20;99.90;;;;;;4980996;28;19910;-92
2023/08/12 03:43:54;;;;;;;;;;;22.20;99.90;;;;;;4980931;28;19910;-93
2023/08/12 03:46:20;;;;;;;;;;;22.20;99.90;;;;;;4980670;28;19929;-94
2023/08/12 03:48:46;;;;;;;;;;;22.20;99.90;;;;;;4981084;28;19957;-94
2023/08/12 03:51:11;;;;;;;;;;;22.20;99.90;;;;;;4980886;28;19925;-93
2023/08/12 03:53:37;;;;;;;;;;;22.20;99.90;;;;;;4980564;28;19964;-93
2023/08/12 03:56:02;;;;;;;;;;;22.20;99.90;;;;;;4980511;28;19953;-95
2023/08/12 03:58:28;;;;;;;;;;;22.10;99.90;;;;;;4981285;28;19921;-93
2023/08/12 04:00:53;;;;;;;;;;;22.20;99.90;;;;;;4981170;28;20033;-92
2023/08/12 04:03:19;;;;;;;;;;;22.20;99.90;;;;;;4980594;28;20371;-93
2023/08/12 04:05:49;;;;;;;;;;;22.10;99.90;;;;;;4980086;28;19933;-93
2023/08/12 04:08:15;;;;;;;;;;;22.10;99.90;;;;;;4980424;28;19910;-92
2023/08/12 04:10:43;;;;;;;;;;;22.10;99.90;;;;;;4980100;28;19968;-94
2023/08/12 04:13:09;;;;;;;;;;;22.10;99.90;;;;;;4981063;28;19910;-94
2023/08/12 04:15:55;;;;;;;;;;;22.10;99.90;;;;;;4980333;28;19914;-94
2023/08/12 04:18:20;;;;;;;;;;;22.10;99.90;;;;;;4979917;28;19960;-94
2023/08/12 04:20:52;;;;;;;;;;;22.10;99.90;;;;;;4980867;28;19918;-94
2023/08/12 04:23:18;;;;;;;;;;;22.10;99.90;;;;;;4980341;28;19910;-94
2023/08/12 04:25:45;;;;;;;;;;;22.10;99.90;;;;;;4980585;28;19932;-94
2023/08/12 04:28:11;;;;;;;;;;;22.10;99.90;;;;;;4984727;28;19929;-94
2023/08/12 04:30:40;;;;;;;;;;;22.10;99.90;;;;;;4980328;28;19929;-94
2023/08/12 04:33:06;;;;;;;;;;;22.10;99.90;;;;;;4980237;28;19960;-94
2023/08/12 04:35:32;;;;;;;;;;;22.10;99.90;;;;;;4980670;28;19910;-94
2023/08/12 04:37:57;;;;;;;;;;;22.10;99.90;;;;;;4979738;28;20008;-94
2023/08/12 04:40:23;;;;;;;;;;;22.10;99.90;;;;;;4979659;28;19981;-94
2023/08/12 04:42:49;;;;;;;;;;;22.10;99.90;;;;;;4979497;28;20362;-94
2023/08/12 04:45:14;;;;;;;;;;;22.10;99.90;;;;;;4979590;28;20349;-94
2023/08/12 04:47:40;;;;;;;;;;;22.00;99.90;;;;;;4980620;28;19920;-94
2023/08/12 04:50:06;;;;;;;;;;;22.00;99.90;;;;;;4979518;28;20394;-94
2023/08/12 04:52:32;;;;;;;;;;;22.00;99.90;;;;;;4979276;28;20379;-93
2023/08/12 04:54:57;;;;;;;;;;;22.00;99.90;;;;;;4979297;28;19917;-93
2023/08/12 04:57:23;;;;;;;;;;;22.00;99.90;;;;;;4979401;28;20362;-94
2023/08/12 04:59:48;;;;;;;;;;;22.00;99.90;;;;;;4979530;28;19917;-92
2023/08/12 05:02:14;;;;;;;;;;;21.90;99.90;;;;;;4979389;28;20255;-94
2023/08/12 05:04:40;;;;;;;;;;;22.00;99.90;;;;;;4979390;28;19914;-94
2023/08/12 05:07:06;;;;;;;;;;;22.00;99.90;;;;;;4979084;28;19918;-93
2023/08/12 05:09:31;;;;;;;;;;;22.00;99.90;;;;;;4979372;28;19920;-93
2023/08/12 05:11:57;;;;;;;;;;;22.00;99.90;;;;;;4979676;28;19918;-93
2023/08/12 05:14:22;;;;;;;;;;;21.90;99.90;;;;;;4980659;28;19945;-94
2023/08/12 05:16:48;;;;;;;;;;;21.90;99.90;;;;;;4980908;28;19921;-94
2023/08/12 05:19:13;;;;;;;;;;;21.90;99.90;;;;;;4980913;28;19980;-94
2023/08/12 05:21:40;;;;;;;;;;;21.90;99.90;;;;;;4981413;28;19914;-94
2023/08/12 05:24:06;;;;;;;;;;;21.90;99.90;;;;;;4980033;28;19914;-93
2023/08/12 05:26:33;;;;;;;;;;;21.90;99.90;;;;;;4980981;28;19921;-94
2023/08/12 05:28:58;;;;;;;;;;;22.00;99.90;;;;;;4981457;28;19929;-94
2023/08/12 05:31:24;;;;;;;;;;;22.00;99.90;;;;;;4982406;28;19913;-94
2023/08/12 05:33:50;;;;;;;;;;;22.00;99.90;;;;;;4980379;28;20017;-94
2023/08/12 05:36:16;;;;;;;;;;;22.00;99.90;;;;;;4978928;28;19921;-94
2023/08/12 05:38:41;;;;;;;;;;;21.90;99.90;;;;;;4979080;28;20367;-95
2023/08/12 05:41:08;;;;;;;;;;;21.90;99.90;;;;;;4979106;28;19937;-94
2023/08/12 05:43:36;;;;;;;;;;;21.90;99.90;;;;;;4979578;28;19961;-95
2023/08/12 05:46:04;;;;;;;;;;;21.80;99.90;;;;;;4979977;28;20351;-94
2023/08/12 05:48:30;;;;;;;;;;;21.80;99.90;;;;;;4980307;28;19937;-95
2023/08/12 05:50:56;;;;;;;;;;;21.70;99.90;;;;;;4980690;28;19925;-93
2023/08/12 05:53:21;;;;;;;;;;;21.70;99.90;;;;;;4980213;28;20315;-93
2023/08/12 05:55:47;;;;;;;;;;;21.60;99.90;;;;;;4980006;28;19933;-94
2023/08/12 05:58:13;;;;;;;;;;;21.60;99.90;;;;;;4979266;28;19910;-93
2023/08/12 06:00:39;;;;;;;;;;;21.60;99.90;;;;;;4978679;28;19910;-94
2023/08/12 06:03:06;;;;;;;;;;;21.50;99.90;;;;;;4979311;28;19921;-93
2023/08/12 06:05:32;;;;;;;;;;;21.50;99.90;;;;;;4980265;28;19973;-93
2023/08/12 06:08:01;;;;;;;;;;;21.50;99.90;;;;;;4980049;28;19964;-94
2023/08/12 06:10:27;;;;;;;;;;;21.50;99.90;;;;;;4979190;28;19914;-94
2023/08/12 06:12:52;;;;;;;;;;;21.40;99.90;;;;;;4978027;28;19910;-94
2023/08/12 06:15:18;;;;;;;;;;;21.40;99.90;;;;;;4978638;28;19917;-93
2023/08/12 06:17:46;;;;;;;;;;;21.30;99.90;;;;;;4977996;28;19917;-94
2023/08/12 06:20:12;;;;;;;;;;;21.30;99.90;;;;;;4978189;28;19949;-93
2023/08/12 06:22:37;;;;;;;;;;;21.20;99.90;;;;;;4978406;28;19921;-93
2023/08/12 06:25:03;;;;;;;;;;;21.20;99.90;;;;;;4979122;28;19910;-93
2023/08/12 06:27:29;;;;;;;;;;;21.20;99.90;;;;;;4978159;28;19910;-94
2023/08/12 06:29:54;;;;;;;;;;;21.10;99.90;;;;;;4978085;28;19953;-93
2023/08/12 06:32:20;;;;;;;;;;;21.10;99.90;;;;;;4978067;28;19910;-92
2023/08/12 06:34:46;;;;;;;;;;;21.00;99.90;;;;;;4978100;28;19918;-93
2023/08/12 06:37:11;;;;;;;;;;;20.90;99.90;;;;;;4978367;28;19953;-93
2023/08/12 06:39:37;;;;;;;;;;;20.80;99.90;;;;;;4978070;28;20363;-93
2023/08/12 06:42:03;;;;;;;;;;;20.80;99.90;;;;;;4977912;28;19949;-93
2023/08/12 06:44:29;;;;;;;;;;;20.80;99.90;;;;;;4979114;28;19910;-93
2023/08/12 06:46:54;;;;;;;;;;;20.80;99.90;;;;;;4978092;28;19909;-93
2023/08/12 06:49:20;;;;;;;;;;;20.80;99.90;;;;;;4978035;28;19921;-94
2023/08/12 06:51:45;;;;;;;;;;;20.80;99.90;;;;;;4978196;28;19918;-93
2023/08/12 06:54:11;;;;;;;;;;;20.80;99.90;;;;;;4977857;28;19909;-93
2023/08/12 06:56:36;;;;;;;;;;;20.90;99.90;;;;;;4981430;28;20466;-93
2023/08/12 06:59:02;;;;;;;;;;;20.80;99.90;;;;;;4981295;28;19910;-93
2023/08/12 07:01:28;;;;;;;;;;;20.90;99.90;;;;;;4981685;28;19941;-93
2023/08/12 07:03:53;;;;;;;;;;;20.90;99.90;;;;;;4981382;28;19910;-93
2023/08/12 07:06:19;;;;;;;;;;;20.90;99.90;;;;;;4981292;28;19909;-93
2023/08/12 07:08:44;;;;;;;;;;;21.00;99.90;;;;;;4981393;28;19910;-94
2023/08/12 07:11:10;;;;;;;;;;;21.00;99.90;;;;;;4981456;28;19921;-94
2023/08/12 07:13:36;;;;;;;;;;;21.00;99.90;;;;;;4981498;28;19942;-94
2023/08/12 07:16:01;;;;;;;;;;;21.00;99.90;;;;;;4981519;28;19910;-94
2023/08/12 07:18:28;;;;;;;;;;;21.00;99.90;;;;;;4981234;28;19914;-93
2023/08/12 07:20:59;;;;;;;;;;;21.00;99.90;;;;;;4981275;28;19982;-93
2023/08/12 07:23:28;;;;;;;;;;;21.00;99.90;;;;;;4990577;28;19934;-94
2023/08/12 07:25:53;;;;;;;;;;;21.00;99.90;;;;;;4988597;28;19949;-95
2023/08/12 07:28:19;;;;;;;;;;;21.00;99.90;;;;;;4987380;28;19910;-95
2023/08/12 07:30:45;;;;;;;;;;;21.00;99.90;;;;;;4984709;28;19913;-95
2023/08/12 07:33:10;;;;;;;;;;;21.00;99.90;;;;;;4984817;28;19992;-94
2023/08/12 07:35:36;;;;;;;;;;;20.90;99.90;;;;;;4986380;28;19914;-96
2023/08/12 07:38:06;;;;;;;;;;;21.00;99.90;;;;;;4985384;28;19953;-96
2023/08/12 07:40:32;;;;;;;;;;;20.90;99.90;;;;;;4983367;28;20319;-93
2023/08/12 07:42:57;;;;;;;;;;;21.00;99.90;;;;;;4984096;28;19945;-93
2023/08/12 07:45:25;;;;;;;;;;;20.90;99.90;;;;;;4985631;28;19910;-95
2023/08/12 07:47:54;;;;;;;;;;;20.90;99.90;;;;;;4984615;28;19914;-94
2023/08/12 07:50:26;;;;;;;;;;;20.90;99.90;;;;;;4984103;28;20012;-94
2023/08/12 07:55:58;;;;;;;;;;;20.90;99.90;;;;;;5005090;28;19974;-95
2023/08/12 07:58:38;;;;;;;;;;;20.90;99.90;;;;;;4994013;28;19910;-95
2023/08/12 08:01:16;;;;;;;;;;;20.90;99.90;;;;;;4991175;28;19917;-96
2023/08/12 08:03:59;;;;;;;;;;;20.90;99.90;;;;;;4993125;28;19917;-96
2023/08/12 08:06:45;;;;;;;;;;;20.90;99.90;;;;;;4997724;28;19910;-95
2023/08/12 08:15:34;;;;;;;;;;;20.90;99.90;;;;;;4998177;28;19956;-93
2023/08/12 08:21:03;;;;;;;;;;;20.90;99.90;;;;;;4997211;28;20386;-93
2023/08/12 08:23:29;;;;;;;;;;;20.80;99.90;;;;;;4979992;28;19929;-94
2023/08/12 08:25:57;;;;;;;;;;;20.80;99.90;;;;;;4979500;28;19914;-95
2023/08/12 08:28:26;;;;;;;;;;;20.80;99.90;;;;;;4979563;28;19921;-95
2023/08/12 08:30:57;;;;;;;;;;;20.90;99.90;;;;;;4982133;28;20400;-96
2023/08/12 08:33:23;;;;;;;;;;;20.80;99.90;;;;;;4981697;28;20351;-94
2023/08/12 08:38:51;;;;;;;;;;;20.80;99.90;;;;;;4997314;28;19932;-94
2023/08/12 08:41:20;;;;;;;;;;;20.80;99.90;;;;;;4979497;28;19914;-95
2023/08/12 08:44:07;;;;;;;;;;;20.80;99.90;;;;;;4979741;28;19910;-96
2023/08/12 08:46:41;;;;;;;;;;;20.80;99.90;;;;;;4979187;28;19910;-95
2023/08/12 08:49:11;;;;;;;;;;;20.80;99.90;;;;;;4977374;28;19917;-95
2023/08/12 08:51:39;;;;;;;;;;;20.80;99.90;;;;;;4979810;28;19925;-95
2023/08/12 08:54:08;;;;;;;;;;;20.80;99.90;;;;;;4979728;28;19910;-95
2023/08/12 09:03:05;;;;;;;;;;;20.90;99.90;;;;;;4937112;28;19934;-96
2023/08/12 09:05:31;;;;;;;;;;;20.90;99.90;;;;;;4979412;28;19909;-96
2023/08/12 09:08:10;;;;;;;;;;;;;;;;;;;;;
2023/08/12 09:34:39;;;;;;;;;;;21.00;99.90;;;;;;5092464;28;19983;-93
2023/08/12 09:37:06;;;;;;;;;;;21.00;99.90;;;;;;5065703;28;19976;-92
2023/08/12 09:39:33;;;;;;;;;;;21.10;99.90;;;;;;5073172;28;19908;-92
2023/08/12 09:52:18;;;;;;;;;;;21.20;99.90;;;;;;5012573;28;19926;-85
2023/08/12 09:54:44;;;;;;;;;;;21.30;99.90;;;;;;5014359;28;19920;-85
2023/08/12 09:57:11;;;;;;;;;;;21.30;99.90;;;;;;4996965;28;20000;-84
2023/08/12 09:59:37;;;;;;;;;;;21.30;99.90;;;;;;4996470;28;19917;-84
2023/08/12 10:02:05;;;;;;;;;;;21.30;99.90;;;;;;5014147;28;19969;-84
2023/08/12 10:04:41;;;;;;;;;;;21.30;99.90;;;;;;4997304;28;20005;-84
2023/08/12 10:07:07;;;;;;;;;;;21.30;99.90;;;;;;5015782;28;19917;-93
2023/08/12 10:09:35;;;;;;;;;;;21.30;99.90;;;;;;4981684;28;20015;-94
2023/08/12 10:12:04;;;;;;;;;;;21.30;99.90;;;;;;4997619;28;19921;-95
2023/08/12 10:14:29;;;;;;;;;;;21.30;99.90;;;;;;4998546;28;20277;-88
2023/08/12 10:16:56;;;;;;;;;;;21.40;99.90;;;;;;5013663;28;19909;-83
2023/08/12 10:19:22;;;;;;;;;;;21.40;99.90;;;;;;4995624;28;19909;-84
2023/08/12 10:21:49;;;;;;;;;;;21.40;99.90;;;;;;4996647;28;19968;-83
2023/08/12 10:24:16;;;;;;;;;;;21.40;99.90;;;;;;5013853;28;19910;-83
2023/08/12 10:26:42;;;;;;;;;;;21.50;99.90;;;;;;4996276;28;19909;-83
2023/08/12 10:29:07;;;;;;;;;;;21.50;99.90;;;;;;4997844;28;20000;-81
2023/08/12 10:31:33;;;;;;;;;;;21.50;99.90;;;;;;4983748;28;20024;-83
2023/08/12 10:33:59;;;;;;;;;;;21.50;99.90;;;;;;5017301;28;19992;-83
2023/08/12 10:36:26;;;;;;;;;;;21.50;99.90;;;;;;5000084;28;19913;-82
2023/08/12 10:38:51;;;;;;;;;;;21.40;99.90;;;;;;5000047;28;19916;-83
2023/08/12 10:41:18;;;;;;;;;;;21.40;99.90;;;;;;5017816;28;19913;-83
2023/08/12 10:43:56;;;;;;;;;;;21.30;99.90;;;;;;4999960;28;20064;-84
2023/08/12 10:46:23;;;;;;;;;;;21.30;99.90;;;;;;4999866;28;19910;-84
2023/08/12 10:49:05;;;;;;;;;;;21.30;99.90;;;;;;4999731;28;19921;-81
2023/08/12 10:51:39;;;;;;;;;;;21.30;99.90;;;;;;5016666;28;20004;-81
2023/08/12 10:54:17;;;;;;;;;;;21.30;99.90;;;;;;4999620;28;19914;-82
2023/08/12 10:57:01;;;;;;;;;;;21.30;99.90;;;;;;4999767;28;19909;-81
2023/08/12 10:59:45;;;;;;;;;;;21.20;99.90;;;;;;4999639;28;19910;-81
2023/08/12 11:02:40;;;;;;;;;;;21.30;99.90;;;;;;5000689;28;19915;-81
2023/08/12 11:05:09;;;;;;;;;;;21.30;99.90;;;;;;4994950;28;19910;-80
2023/08/12 11:07:42;;;;;;;;;;;21.30;99.90;;;;;;5007130;28;19913;-82
2023/08/12 11:10:12;;;;;;;;;;;21.30;99.90;;;;;;4999140;28;19913;-82
2023/08/12 11:12:38;;;;;;;;;;;21.40;99.90;;;;;;4999368;28;19984;-82
2023/08/12 11:15:04;;;;;;;;;;;21.40;99.90;;;;;;5016560;28;20000;-82
2023/08/12 11:17:34;;;;;;;;;;;21.40;99.90;;;;;;4982840;28;19914;-82
2023/08/12 11:20:00;;;;;;;;;;;21.40;99.90;;;;;;5016570;28;19909;-82
2023/08/12 11:22:26;;;;;;;;;;;21.50;99.90;;;;;;4999173;28;19917;-82
2023/08/12 11:24:52;;;;;;;;;;;21.50;99.90;;;;;;5016484;28;19956;-85
2023/08/12 11:27:18;;;;;;;;;;;21.50;99.90;;;;;;4999273;28;20317;-83
2023/08/12 11:29:43;;;;;;;;;;;21.50;99.90;;;;;;4999007;28;19925;-82
2023/08/12 11:32:09;;;;;;;;;;;21.60;99.90;;;;;;4998802;28;19941;-83
2023/08/12 11:34:35;;;;;;;;;;;21.60;99.90;;;;;;5016505;28;19916;-87
2023/08/12 11:37:00;;;;;;;;;;;21.60;99.90;;;;;;4999359;28;19920;-84
2023/08/12 11:39:26;;;;;;;;;;;21.60;99.90;;;;;;5016460;28;19914;-84
2023/08/12 11:41:52;;;;;;;;;;;21.70;99.90;;;;;;4998599;28;19914;-84
2023/08/12 11:44:21;;;;;;;;;;;21.70;99.90;;;;;;4982629;28;19917;-85
2023/08/12 11:46:46;;;;;;;;;;;21.70;99.90;;;;;;4998566;28;19909;-84
2023/08/12 11:49:12;;;;;;;;;;;21.80;99.90;;;;;;4998755;28;19914;-84
2023/08/12 11:51:37;;;;;;;;;;;21.80;99.90;;;;;;5016427;28;20370;-88
2023/08/12 11:54:03;;;;;;;;;;;21.90;99.90;;;;;;4983008;28;19917;-85
2023/08/12 11:56:29;;;;;;;;;;;21.90;99.90;;;;;;4998497;28;19917;-83
2023/08/12 11:58:54;;;;;;;;;;;22.00;99.90;;;;;;4982285;28;20328;-85
2023/08/12 12:01:23;;;;;;;;;;;22.00;99.90;;;;;;4998425;28;19913;-85
2023/08/12 12:03:52;;;;;;;;;;;22.10;99.90;;;;;;4982358;28;19925;-85
2023/08/12 12:06:17;;;;;;;;;;;22.20;99.90;;;;;;4998443;28;19920;-86
2023/08/12 12:08:46;;;;;;;;;;;22.20;99.90;;;;;;4998758;28;19913;-86
2023/08/12 12:11:13;;;;;;;;;;;22.10;99.90;;;;;;4982230;28;19918;-85
2023/08/12 12:13:39;;;;;;;;;;;22.10;99.90;;;;;;5015941;28;19914;-85
2023/08/12 12:16:09;;;;;;;;;;;22.20;99.90;;;;;;5015587;28;19913;-84
2023/08/12 12:18:35;;;;;;;;;;;22.20;99.90;;;;;;4998073;28;20281;-83
2023/08/12 12:21:00;;;;;;;;;;;22.30;99.90;;;;;;5016490;28;19921;-85
2023/08/12 12:23:27;;;;;;;;;;;22.30;99.90;;;;;;4982103;28;20424;-85
2023/08/12 12:26:03;;;;;;;;;;;22.40;99.90;;;;;;4998542;28;19964;-86
2023/08/12 12:28:29;;;;;;;;;;;22.40;99.90;;;;;;5016083;28;19914;-86
2023/08/12 12:30:54;;;;;;;;;;;22.50;99.90;;;;;;4998525;28;19925;-86
2023/08/12 12:33:20;;;;;;;;;;;22.60;99.90;;;;;;4998271;28;19924;-86
2023/08/12 12:35:46;;;;;;;;;;;22.60;99.90;;;;;;4999147;28;19914;-86
2023/08/12 12:38:12;;;;;;;;;;;22.50;99.90;;;;;;5016046;28;19913;-86
2023/08/12 12:40:38;;;;;;;;;;;22.60;99.90;;;;;;4981749;28;19914;-86
2023/08/12 12:43:04;;;;;;;;;;;22.60;99.90;;;;;;5015174;28;19917;-87
2023/08/12 12:45:29;;;;;;;;;;;22.60;99.90;;;;;;5015903;28;19936;-86
2023/08/12 12:47:54;;;;;;;;;;;22.60;99.90;;;;;;4998135;28;19913;-85
2023/08/12 12:50:20;;;;;;;;;;;22.60;99.90;;;;;;5014973;28;19917;-86
2023/08/12 12:52:46;;;;;;;;;;;22.60;99.90;;;;;;5015510;28;19909;-87
2023/08/12 12:55:11;;;;;;;;;;;22.70;99.90;;;;;;5019013;28;20000;-89
2023/08/12 12:57:37;;;;;;;;;;;22.60;99.90;;;;;;4982555;28;19920;-86
2023/08/12 13:00:04;;;;;;;;;;;22.60;99.90;;;;;;4981709;28;20004;-88
2023/08/12 13:02:29;;;;;;;;;;;22.60;99.90;;;;;;4981412;28;19917;-86
2023/08/12 13:04:55;;;;;;;;;;;22.60;99.90;;;;;;4981497;28;19922;-82
2023/08/12 13:07:21;;;;;;;;;;;22.50;99.90;;;;;;4997137;28;20004;-85
2023/08/12 13:09:46;;;;;;;;;;;22.50;99.90;;;;;;5014846;28;20344;-83
2023/08/12 13:12:12;;;;;;;;;;;22.50;99.90;;;;;;4980462;28;20372;-82
2023/08/12 13:14:37;;;;;;;;;;;22.50;99.90;;;;;;5014517;28;19920;-82
2023/08/12 13:17:03;;;;;;;;;;;22.50;99.90;;;;;;5015798;28;19913;-82
2023/08/12 13:19:28;;;;;;;;;;;22.50;99.90;;;;;;4997949;28;19916;-82
2023/08/12 13:21:54;;;;;;;;;;;22.50;99.90;;;;;;4997714;28;19913;-83
2023/08/12 13:24:20;;;;;;;;;;;22.50;99.90;;;;;;4982697;28;19913;-83
2023/08/12 13:26:45;;;;;;;;;;;22.50;99.90;;;;;;5014670;28;19914;-82
2023/08/12 13:29:11;;;;;;;;;;;22.50;99.90;;;;;;4996673;28;19921;-82
2023/08/12 13:31:37;;;;;;;;;;;22.50;99.90;;;;;;4980462;28;19917;-82
2023/08/12 13:34:02;;;;;;;;;;;22.60;99.90;;;;;;4996392;28;20425;-82
2023/08/12 13:36:29;;;;;;;;;;;22.70;99.90;;;;;;4996478;28;20388;-82
2023/08/12 13:38:54;;;;;;;;;;;22.70;99.90;;;;;;4996737;28;20249;-82
2023/08/12 13:41:20;;;;;;;;;;;22.90;99.90;;;;;;4996994;28;19920;-82
2023/08/12 13:43:46;;;;;;;;;;;22.90;99.90;;;;;;4981913;28;19924;-82
2023/08/12 13:46:11;;;;;;;;;;;23.00;99.90;;;;;;5014910;28;19916;-83
2023/08/12 13:48:37;;;;;;;;;;;22.90;99.90;;;;;;4996324;28;19968;-80
2023/08/12 13:51:03;;;;;;;;;;;22.90;99.90;;;;;;4997648;28;19979;-88
2023/08/12 13:53:31;;;;;;;;;;;22.90;99.90;;;;;;4998395;28;20361;-91
2023/08/12 13:55:59;;;;;;;;;;;23.00;99.90;;;;;;4981631;28;19913;-89
2023/08/12 13:58:28;;;;;;;;;;;23.00;99.90;;;;;;4989169;28;19949;-90
2023/08/12 14:00:56;;;;;;;;;;;23.00;99.90;;;;;;5010288;28;19920;-93
2023/08/12 14:16:25;;;;;;;;;;;23.30;99.90;;;;;;4937564;28;19918;-95
2023/08/12 14:22:15;;;;;;;;;;;23.30;99.90;;;;;;4936526;29;19970;-92
2023/08/12 14:24:44;;;;;;;;;;;23.30;99.90;;;;;;5014559;28;19913;-93
2023/08/12 14:27:17;;;;;;;;;;;23.30;99.90;;;;;;5015025;28;20004;-95
2023/08/12 14:32:52;;;;;;;;;;;23.30;99.90;;;;;;5014721;28;19940;-93
2023/08/12 14:38:27;;;;;;;;;;;23.30;99.90;;;;;;5015545;28;19968;-95
2023/08/12 14:41:06;;;;;;;;;;;23.30;99.90;;;;;;4997770;28;19913;-94
2023/08/12 14:43:32;;;;;;;;;;;23.30;99.90;;;;;;4997734;28;19911;-94
2023/08/12 14:46:10;;;;;;;;;;;23.40;99.90;;;;;;4998034;28;19933;-95
2023/08/12 14:51:31;;;;;;;;;;;23.50;99.90;;;;;;5005950;28;19984;-94
2023/08/12 15:03:14;;;;;;;;;;;23.80;99.90;;;;;;5033243;28;19916;-94
2023/08/12 15:05:55;;;;;;;;;;;;;;;;;;;;;
2023/08/12 15:08:39;;;;;;;;;;;;;;;;;;;;;
2023/08/12 15:11:07;;;;;;;;;;;23.80;99.90;;;;;;4977180;28;19918;-93
2023/08/12 15:13:52;;;;;;;;;;;23.80;99.90;;;;;;5025546;28;19917;-93
2023/08/12 15:16:18;;;;;;;;;;;23.90;99.90;;;;;;5018871;28;19963;-93
2023/08/12 15:18:46;;;;;;;;;;;23.90;99.90;;;;;;5020782;28;19958;-92
2023/08/12 15:21:13;;;;;;;;;;;23.90;99.90;;;;;;5038282;28;19910;-93
2023/08/12 15:23:44;;;;;;;;;;;23.90;99.90;;;;;;5004038;28;20376;-94
2023/08/12 15:26:17;;;;;;;;;;;24.00;99.90;;;;;;5020654;28;19909;-94
2023/08/12 15:28:50;;;;;;;;;;;24.00;99.90;;;;;;5020591;28;19995;-94
2023/08/12 15:31:25;;;;;;;;;;;24.00;99.90;;;;;;5019802;28;19920;-94
2023/08/12 15:33:53;;;;;;;;;;;24.00;99.90;;;;;;5003895;28;20452;-93
2023/08/12 15:36:18;;;;;;;;;;;24.10;99.90;;;;;;5020024;28;19913;-93
2023/08/12 15:38:45;;;;;;;;;;;24.10;99.90;;;;;;5019937;28;19996;-94
2023/08/12 15:41:15;;;;;;;;;;;24.10;99.90;;;;;;5020188;28;19909;-92
2023/08/12 15:43:41;;;;;;;;;;;24.10;99.90;;;;;;5020066;28;19909;-94
2023/08/12 15:46:07;;;;;;;;;;;24.20;99.90;;;;;;5035148;22;20438;-96
2023/08/12 15:48:32;;;;;;;;;;;24.20;99.90;;;;;;5006043;28;19910;-95
2023/08/12 15:50:58;;;;;;;;;;;24.20;99.90;;;;;;5005954;28;19913;-96
2023/08/12 15:53:24;;;;;;;;;;;24.20;99.90;;;;;;4987827;28;19921;-95
2023/08/12 15:55:49;;;;;;;;;;;24.30;99.90;;;;;;4989552;28;19913;-96